Time;durP1;ratioP1;P1;durP2;ratioP2;P2;SDS_P1;SDS_P2;PMS_P1;PMS_P2;Temp;Humidity;BMP_temperature;BMP_pressure;BME280_temperature;BME280_humidity;BME280_pressure;Samples;Min_cycle;Max_cycle;Signal;HPM_P1;HPM_P2
2022/01/05 13:15:03;;;;;;;1.67;1.67;;;;;;;11.68;47.50;93568.41;2464781;54;50727;-71
2022/01/05 13:17:42;;;;;;;1.13;1.13;;;;;;;11.11;49.78;93491.25;2615435;54;20652;-72
2022/01/05 13:20:14;;;;;;;1.93;1.83;;;;;;;10.68;48.19;93487.16;2615497;54;20153;-72
2022/01/05 13:22:49;;;;;;;4.60;3.37;;;;;;;10.78;48.92;93555.28;2615802;54;20149;-71
2022/01/05 13:25:27;;;;;;;1.43;1.43;;;;;;;11.26;49.51;93614.00;2615866;54;20156;-76
2022/01/05 13:28:05;;;;;;;2.00;1.90;;;;;;;11.19;49.35;93587.69;2613255;54;20153;-76
2022/01/05 13:30:39;;;;;;;1.97;1.87;;;;;;;10.92;49.15;93561.16;2615406;54;20181;-77
2022/01/05 13:33:15;;;;;;;1.67;1.57;;;;;;;11.19;49.21;93604.00;2614920;54;20148;-74
2022/01/05 13:35:45;;;;;;;2.43;1.83;;;;;;;11.46;49.76;93610.69;2609257;47;20244;-73
2022/01/05 13:38:17;;;;;;;1.63;1.53;;;;;;;11.14;49.71;93569.22;2616179;47;20160;-75
2022/01/05 13:40:49;;;;;;;2.40;2.30;;;;;;;11.12;49.32;93574.13;2616414;54;20168;-75
2022/01/05 13:43:20;;;;;;;2.93;1.77;;;;;;;10.86;49.63;93526.34;2616404;47;20157;-76
2022/01/05 13:45:59;;;;;;;2.07;1.97;;;;;;;11.16;49.83;93585.53;2616453;47;20266;-75
2022/01/05 13:48:31;;;;;;;2.20;2.10;;;;;;;11.25;49.79;93595.56;2614883;47;20145;-74
2022/01/05 13:51:07;;;;;;;2.03;1.93;;;;;;;11.30;50.83;93592.09;2616519;47;20157;-74
2022/01/05 13:53:44;;;;;;;1.67;1.57;;;;;;;11.03;50.27;93595.97;2616423;47;20157;-74
2022/01/05 13:56:15;;;;;;;1.33;1.33;;;;;;;10.90;50.86;93580.22;2616343;54;20145;-75
2022/01/05 13:58:54;;;;;;;1.10;1.07;;;;;;;10.92;50.44;93561.16;2616709;54;20175;-74
2022/01/05 14:01:33;;;;;;;1.53;1.43;;;;;;;11.18;49.92;93580.59;2616326;47;20169;-74
2022/01/05 14:04:16;;;;;;;2.73;2.53;;;;;;;11.14;49.89;93538.03;2616593;46;20153;-73
2022/01/05 14:06:45;;;;;;;2.43;0.90;;;;;;;11.10;49.62;93495.47;2616879;39;20554;-73
2022/01/05 14:09:14;;;;;;;3.10;2.03;;;;;;;10.83;50.06;93542.59;2616789;46;20648;-73
2022/01/05 14:11:45;;;;;;;1.00;1.00;;;;;;;11.11;51.52;93576.25;2616442;47;20160;-73
2022/01/05 14:14:17;;;;;;;4.00;3.27;;;;;;;10.35;50.99;93545.44;2616189;47;20191;-72
2022/01/05 14:16:51;;;;;;;2.70;2.50;;;;;;;10.30;51.76;93560.94;2616351;54;20201;-74
2022/01/05 14:19:33;;;;;;;3.00;1.53;;;;;;;9.84;51.82;93505.00;2612612;47;20669;-72
2022/01/05 14:22:07;;;;;;;2.00;2.00;;;;;;;9.60;52.11;93471.38;2616296;47;20197;-71
2022/01/05 14:24:38;;;;;;;2.27;2.17;;;;;;;10.34;51.96;93478.94;2616401;54;20149;-74
2022/01/05 14:27:12;;;;;;;2.00;1.97;;;;;;;11.09;50.59;93542.22;2616765;54;20641;-71
2022/01/05 14:29:43;;;;;;;2.87;2.63;;;;;;;11.51;49.98;93552.63;2615964;54;20148;-73
2022/01/05 14:32:17;;;;;;;2.47;2.27;;;;;;;10.54;49.38;93450.19;2616741;54;20232;-73
2022/01/05 14:34:53;;;;;;;2.57;2.37;;;;;;;10.19;52.02;93551.56;2616164;54;20152;-72
2022/01/05 14:37:22;;;;;;;1.43;1.33;;;;;;;9.86;52.53;93547.44;2616538;54;20210;-71
2022/01/05 14:39:52;;;;;;;2.00;1.90;;;;;;;9.51;53.90;93452.88;2616350;54;20156;-72
2022/01/05 14:42:26;;;;;;;1.40;1.40;;;;;;;11.09;53.71;93550.00;2616999;54;20148;-72
2022/01/05 14:45:00;;;;;;;2.30;1.30;;;;;;;11.27;53.66;93488.59;2615629;47;20165;-71
2022/01/05 14:47:35;;;;;;;2.00;1.80;;;;;;;11.55;50.89;93471.16;2616177;54;20153;-75
2022/01/05 14:50:04;;;;;;;4.30;1.80;;;;;;;11.77;47.88;93527.41;2613361;54;20159;-72
2022/01/05 14:52:34;;;;;;;1.30;1.27;;;;;;;11.60;47.70;93522.97;2613081;47;20244;-74
2022/01/05 14:55:03;;;;;;;2.13;2.00;;;;;;;11.06;49.12;93531.56;2615978;47;20164;-73
2022/01/05 14:57:39;;;;;;;3.20;3.10;;;;;;;10.24;50.46;93468.19;2615097;54;20157;-76
2022/01/05 15:00:14;;;;;;;3.63;3.37;;;;;;;10.99;50.15;93548.47;2615667;39;20509;-73
2022/01/05 15:02:51;;;;;;;4.03;2.33;;;;;;;11.08;51.29;93472.78;2613827;54;20156;-74
2022/01/05 15:05:29;;;;;;;3.40;2.87;;;;;;;12.19;50.95;93552.59;2615112;46;20152;-72
2022/01/05 15:08:03;;;;;;;2.10;1.83;;;;;;;11.74;47.46;93557.84;2616100;54;20152;-73
2022/01/05 15:10:36;;;;;;;1.60;1.50;;;;;;;11.54;50.58;93556.91;2616126;54;20148;-73
2022/01/05 15:13:12;;;;;;;5.70;2.93;;;;;;;11.73;50.30;93567.78;2617115;47;20160;-73
2022/01/05 15:15:41;;;;;;;1.97;1.90;;;;;;;11.77;51.93;93516.06;2616877;54;20159;-73
2022/01/05 15:18:18;;;;;;;1.77;1.77;;;;;;;12.57;49.53;93583.47;2616138;47;20167;-73
2022/01/05 15:20:49;;;;;;;1.80;1.70;;;;;;;12.03;48.31;93598.59;2615848;47;20156;-72
2022/01/05 15:23:18;;;;;;;2.13;1.97;;;;;;;11.81;49.46;93575.66;2614905;39;20572;-73
2022/01/05 15:25:46;;;;;;;3.67;2.07;;;;;;;11.25;52.16;93454.56;2614313;54;20157;-72
2022/01/05 15:28:16;;;;;;;2.40;2.30;;;;;;;12.03;47.53;93580.84;2616633;39;20647;-73
2022/01/05 15:30:46;;;;;;;2.70;2.50;;;;;;;11.12;48.50;93549.34;2616130;47;20176;-74
2022/01/05 15:33:21;;;;;;;6.40;2.30;;;;;;;9.98;49.66;93443.00;2616234;46;20225;-72
2022/01/05 15:35:50;;;;;;;2.73;2.63;;;;;;;11.84;52.88;93548.75;2614432;47;20137;-70
2022/01/05 15:38:20;;;;;;;3.03;2.80;;;;;;;11.88;49.60;93545.97;2614998;54;20157;-70
2022/01/05 15:40:49;;;;;;;1.30;1.30;;;;;;;12.40;51.27;93559.19;2612709;47;20714;-70
2022/01/05 15:43:18;;;;;;;3.83;1.30;;;;;;;12.07;48.26;93563.84;2615630;47;20630;-69
2022/01/05 15:45:48;;;;;;;2.33;2.13;;;;;;;12.36;48.90;93584.69;2615980;54;20165;-70
2022/01/05 15:48:19;;;;;;;2.10;1.50;;;;;;;11.91;49.77;93479.31;2615081;47;20689;-70
2022/01/05 15:50:50;;;;;;;1.90;1.80;;;;;;;12.41;46.63;93577.66;2615944;47;20145;-73
2022/01/05 15:53:19;;;;;;;2.47;2.37;;;;;;;10.62;48.07;93473.66;2614903;54;20264;-72
2022/01/05 15:55:53;;;;;;;2.33;2.23;;;;;;;10.19;50.65;93528.94;2615346;47;20145;-72
2022/01/05 16:03:51;;;;;;;3.20;3.10;;;;;;;9.97;50.32;93522.91;2615497;47;20141;-70
2022/01/05 16:06:22;;;;;;;2.10;2.00;;;;;;;10.68;54.93;93541.69;2614388;54;20155;-70
2022/01/05 16:08:53;;;;;;;3.37;3.07;;;;;;;10.19;50.21;93499.94;2614192;54;20144;-74
2022/01/05 16:11:27;;;;;;;3.07;2.03;;;;;;;11.45;53.06;93555.41;2614120;47;20148;-73
2022/01/05 16:13:56;;;;;;;4.85;4.28;;;;;;;11.41;50.12;93564.56;2615075;47;20459;-71
2022/01/05 16:16:25;;;;;;;3.50;3.30;;;;;;;11.55;49.61;93522.19;2612994;54;20157;-72
2022/01/05 16:18:57;;;;;;;2.93;2.80;;;;;;;10.76;48.76;93503.56;2612185;54;21067;-71
2022/01/05 16:21:26;;;;;;;8.07;2.77;;;;;;;11.27;53.41;93533.94;2614333;47;20192;-73
2022/01/05 16:23:55;;;;;;;9.70;4.57;;;;;;;11.82;49.53;93559.38;2615138;54;20404;-73
2022/01/05 16:26:24;;;;;;;3.97;3.67;;;;;;;11.70;49.86;93571.28;2615388;39;20530;-75
2022/01/05 16:29:00;;;;;;;4.47;4.07;;;;;;;10.41;50.85;93550.47;2615344;54;20171;-75
2022/01/05 16:31:35;;;;;;;3.40;3.10;;;;;;;11.02;52.96;93515.22;2615222;47;20175;-79
2022/01/05 16:34:48;;;;;;;;;;;;;;;;;;;;;
2022/01/05 17:02:43;;;;;;;2.80;2.57;;;;;;;9.61;52.04;93501.09;2615411;47;20197;-72
2022/01/05 17:05:12;;;;;;;3.17;2.47;;;;;;;10.32;52.35;93479.63;2615208;47;20157;-74
2022/01/05 17:07:45;;;;;;;3.87;3.67;;;;;;;11.56;53.32;93579.63;2615351;47;20153;-74
2022/01/05 17:10:15;;;;;;;2.33;2.23;;;;;;;10.80;53.33;93487.31;2615912;47;20188;-74
2022/01/05 17:12:55;;;;;;;9.70;4.63;;;;;;;10.46;50.02;93504.56;2615445;47;20657;-74
2022/01/05 17:15:25;;;;;;;3.93;3.17;;;;;;;10.88;49.46;93509.38;2615937;54;20188;-75
2022/01/05 17:17:56;;;;;;;3.33;3.10;;;;;;;11.70;50.32;93563.47;2616043;47;20153;-75
2022/01/05 17:20:26;;;;;;;14.32;10.35;;;;;;;11.78;48.87;93553.66;2615683;47;20384;-75
2022/01/05 17:23:00;;;;;;;6.37;4.17;;;;;;;11.57;48.57;93498.81;2615905;54;20292;-73
2022/01/05 17:25:31;;;;;;;3.43;3.13;;;;;;;11.86;47.92;93539.56;2615806;47;20661;-76
2022/01/05 17:28:04;;;;;;;6.43;3.20;;;;;;;11.55;48.58;93487.47;2616026;47;20657;-76
2022/01/05 17:30:33;;;;;;;2.67;2.47;;;;;;;11.36;48.42;93586.47;2616311;39;20512;-75
2022/01/05 17:33:02;;;;;;;2.40;2.23;;;;;;;10.15;50.77;93485.69;2616057;54;20168;-73
2022/01/05 17:35:33;;;;;;;2.20;2.07;;;;;;;9.96;52.76;93524.31;2617063;39;20552;-75
2022/01/05 17:38:02;;;;;;;4.73;2.90;;;;;;;10.39;52.30;93558.97;2616445;47;20157;-75
2022/01/05 17:40:31;;;;;;;2.73;2.63;;;;;;;10.48;51.15;93574.66;2615648;54;20153;-75
2022/01/05 17:43:03;;;;;;;3.67;2.33;;;;;;;9.23;52.67;93500.41;2615517;47;20148;-77
2022/01/05 17:45:33;;;;;;;2.20;2.00;;;;;;;8.54;55.93;93544.91;2615330;46;20145;-74
2022/01/05 17:48:01;;;;;;;2.10;2.00;;;;;;;7.96;57.23;93527.31;2614766;39;20564;-72
2022/01/05 17:50:31;;;;;;;9.60;3.97;;;;;;;8.16;58.15;93591.94;2614170;54;20209;-73
2022/01/05 17:53:03;;;;;;;4.53;2.33;;;;;;;8.88;57.28;93508.19;2615372;47;20655;-75
2022/01/05 17:55:33;;;;;;;2.30;2.10;;;;;;;9.60;54.80;93502.47;2615455;54;20271;-75
2022/01/05 17:58:13;;;;;;;1.97;1.90;;;;;;;10.57;52.13;93601.69;2615117;54;20287;-75
2022/01/05 18:00:42;;;;;;;3.83;3.40;;;;;;;9.36;52.82;93473.81;2615500;54;20164;-71
2022/01/05 18:03:11;;;;;;;4.97;4.57;;;;;;;9.67;53.70;93593.06;2615242;47;20165;-73
2022/01/05 18:05:40;;;;;;;3.87;3.20;;;;;;;10.15;52.05;93539.44;2615379;47;20145;-73
2022/01/05 18:08:09;;;;;;;3.33;2.87;;;;;;;10.71;53.09;93538.88;2614520;54;20168;-71
2022/01/05 18:10:39;;;;;;;5.30;4.50;;;;;;;11.17;51.75;93570.66;2615119;54;20195;-70
2022/01/05 18:13:16;;;;;;;6.67;4.90;;;;;;;9.98;52.65;93607.06;2614591;54;20133;-74
2022/01/05 18:15:46;;;;;;;3.27;3.10;;;;;;;9.71;52.35;93494.88;2615213;54;20145;-76
2022/01/05 18:18:16;;;;;;;3.00;2.03;;;;;;;10.83;52.14;93570.19;2614481;47;20176;-74
2022/01/05 18:20:46;;;;;;;3.53;3.33;;;;;;;8.89;57.97;93604.91;2614937;54;20239;-75
2022/01/05 18:23:14;;;;;;;2.67;2.47;;;;;;;10.57;54.80;93598.84;2615276;47;20153;-73
2022/01/05 18:25:43;;;;;;;6.90;5.40;;;;;;;10.93;51.83;93593.72;2614973;47;20480;-75
2022/01/05 18:28:14;;;;;;;4.37;3.73;;;;;;;8.71;54.06;93492.34;2614900;54;20201;-73
2022/01/05 18:30:43;;;;;;;3.33;3.10;;;;;;;9.59;54.62;93599.97;2616001;31;20638;-76
2022/01/05 18:33:12;;;;;;;5.63;4.75;;;;;;;9.10;55.12;93586.28;2615283;54;20968;-76
2022/01/05 18:35:40;;;;;;;3.50;3.20;;;;;;;8.09;57.62;93540.31;2615284;39;20958;-76
2022/01/05 18:38:11;;;;;;;2.97;2.63;;;;;;;8.43;59.58;93582.75;2615216;54;20835;-75
2022/01/05 18:40:40;;;;;;;2.93;2.73;;;;;;;9.54;57.35;93572.34;2615473;39;20395;-76
2022/01/05 18:43:08;;;;;;;2.10;2.00;;;;;;;9.98;55.53;93587.25;2615301;46;20302;-76
2022/01/05 18:45:40;;;;;;;3.53;3.23;;;;;;;10.61;53.05;93596.81;2615590;46;20334;-75
2022/01/05 18:48:09;;;;;;;5.07;4.63;;;;;;;10.62;52.29;93586.19;2615363;54;20168;-75
2022/01/05 18:50:38;;;;;;;6.30;5.63;;;;;;;10.88;53.02;93605.69;2615059;47;20157;-75
2022/01/05 18:53:06;;;;;;;2.97;2.77;;;;;;;10.97;52.01;93595.88;2615248;54;20157;-73
2022/01/05 18:55:35;;;;;;;8.10;6.30;;;;;;;10.41;51.00;93537.03;2614683;54;20948;-72
2022/01/05 18:58:05;;;;;;;4.80;3.30;;;;;;;11.04;52.74;93608.75;2615357;54;20148;-72
2022/01/05 19:00:33;;;;;;;3.13;2.93;;;;;;;11.27;51.43;93618.25;2615472;54;20167;-73
2022/01/05 19:03:05;;;;;;;2.93;2.73;;;;;;;11.32;51.31;93605.56;2615310;47;20156;-74
2022/01/05 19:05:34;;;;;;;13.30;7.13;;;;;;;10.28;52.04;93598.41;2615434;54;20940;-73
2022/01/05 19:08:03;;;;;;;5.43;4.00;;;;;;;10.83;52.04;93584.34;2615164;54;20277;-74
2022/01/05 19:10:31;;;;;;;4.30;3.90;;;;;;;10.65;51.16;93616.69;2615433;47;20657;-74
2022/01/05 19:13:00;;;;;;;5.70;4.83;;;;;;;9.97;54.29;93624.72;2615466;54;20153;-73
2022/01/05 19:15:29;;;;;;;4.73;4.07;;;;;;;9.97;54.03;93503.09;2616348;31;20607;-73
2022/01/05 19:17:59;;;;;;;6.33;5.00;;;;;;;11.15;52.89;93620.94;2615449;54;20145;-74
2022/01/05 19:20:30;;;;;;;5.87;5.33;;;;;;;9.89;50.54;93511.44;2615341;47;20141;-73
2022/01/05 19:22:59;;;;;;;4.50;4.07;;;;;;;9.56;56.03;93620.44;2615475;54;20206;-73
2022/01/05 19:25:28;;;;;;;6.17;3.40;;;;;;;10.47;53.85;93596.59;2615399;54;20262;-74
2022/01/05 19:27:57;;;;;;;4.73;4.43;;;;;;;10.29;50.78;93630.97;2615468;54;20148;-73
2022/01/05 19:30:26;;;;;;;5.27;4.33;;;;;;;8.42;55.99;93626.44;2615306;47;20313;-74
2022/01/05 19:32:54;;;;;;;6.17;4.23;;;;;;;9.97;55.67;93641.69;2614765;54;20189;-74
2022/01/05 19:35:23;;;;;;;3.53;3.43;;;;;;;10.66;53.79;93635.09;2614745;47;20285;-71
2022/01/05 19:37:54;;;;;;;4.60;4.20;;;;;;;9.38;54.08;93555.06;2615115;46;20157;-75
2022/01/05 19:40:23;;;;;;;4.73;3.60;;;;;;;8.65;55.92;93622.03;2615594;39;20589;-74
2022/01/05 19:42:52;;;;;;;4.03;3.33;;;;;;;8.04;58.15;93642.41;2591860;54;20261;-74
2022/01/05 19:45:21;;;;;;;4.67;2.47;;;;;;;8.27;59.99;93650.03;2615160;54;20161;-75
2022/01/05 19:47:49;;;;;;;4.93;2.13;;;;;;;7.77;57.46;93591.00;2615500;47;20187;-74
2022/01/05 19:50:20;;;;;;;2.77;2.57;;;;;;;8.73;59.24;93608.13;2615172;54;20153;-76
2022/01/05 19:52:58;;;;;;;2.53;2.43;;;;;;;9.81;55.70;93625.16;2615347;47;20148;-74
2022/01/05 19:55:35;;;;;;;4.00;3.07;;;;;;;10.52;54.22;93649.03;2615111;54;20149;-74
2022/01/05 19:58:12;;;;;;;4.53;4.10;;;;;;;10.80;52.89;93623.25;2613856;39;20906;-74
2022/01/05 20:00:47;;;;;;;2.80;2.67;;;;;;;11.11;52.71;93649.19;2615874;39;20517;-77
2022/01/05 20:03:20;;;;;;;6.77;6.33;;;;;;;9.49;52.88;93560.22;2614967;54;20222;-76
2022/01/05 20:05:52;;;;;;;2.87;2.43;;;;;;;10.68;53.94;93629.47;2615205;47;20153;-76
2022/01/05 20:08:28;;;;;;;6.87;6.27;;;;;;;9.05;53.05;93632.78;2615419;54;20165;-75
2022/01/05 20:11:01;;;;;;;2.67;2.27;;;;;;;6.46;61.86;93601.34;2615117;47;20153;-73
2022/01/05 20:13:30;;;;;;;4.23;4.00;;;;;;;7.24;61.02;93630.41;2615215;54;20200;-74
2022/01/05 20:15:59;;;;;;;4.60;3.07;;;;;;;7.46;59.66;93636.66;2615688;54;20164;-73
2022/01/05 20:18:28;;;;;;;2.60;2.40;;;;;;;6.88;63.05;93602.63;2615953;54;20157;-74
2022/01/05 20:20:57;;;;;;;3.83;3.33;;;;;;;8.08;61.14;93535.34;2616111;39;20635;-75
2022/01/05 20:23:27;;;;;;;4.83;4.27;;;;;;;8.49;56.56;93540.53;2614965;47;20161;-75
2022/01/05 20:26:04;;;;;;;3.13;2.83;;;;;;;10.01;57.27;93595.78;2615213;47;20653;-76
2022/01/05 20:28:44;;;;;;;3.10;2.97;;;;;;;10.49;56.29;93619.25;2614234;47;20164;-75
2022/01/05 20:31:14;;;;;;;4.27;3.90;;;;;;;9.89;50.93;93560.25;2614904;47;20244;-74
2022/01/05 20:33:52;;;;;;;12.47;6.17;;;;;;;8.10;54.89;93541.75;2614870;47;20145;-74
2022/01/05 20:36:20;;;;;;;4.63;4.17;;;;;;;7.78;58.63;93642.44;2615528;39;20526;-74
2022/01/05 20:38:52;;;;;;;4.57;1.93;;;;;;;8.99;64.74;93632.66;2614641;47;20191;-75
2022/01/05 20:41:23;;;;;;;5.80;3.47;;;;;;;8.87;56.51;93630.28;2614839;47;20156;-73
2022/01/05 20:43:52;;;;;;;4.30;2.33;;;;;;;8.32;57.57;93612.09;2615485;47;20152;-74
2022/01/05 20:46:21;;;;;;;3.37;3.07;;;;;;;10.26;57.57;93640.09;2615951;54;20144;-74
2022/01/05 20:48:50;;;;;;;4.10;3.70;;;;;;;9.25;52.91;93591.56;2616141;54;20164;-74
2022/01/05 20:54:02;;;;;;;8.03;5.83;;;;;;;8.78;54.85;93626.56;2614545;47;20180;-74
2022/01/05 20:56:35;;;;;;;2.33;2.23;;;;;;;8.96;56.34;93648.84;2615926;54;20721;-74
2022/01/05 20:59:04;;;;;;;3.90;3.60;;;;;;;7.87;57.51;93618.00;2615752;54;20153;-73
2022/01/05 21:01:33;;;;;;;1.80;1.80;;;;;;;8.32;56.55;93552.88;2615959;54;20164;-73
2022/01/05 21:04:03;;;;;;;4.57;4.27;;;;;;;7.55;56.74;93637.56;2615165;47;20167;-76
2022/01/05 21:06:32;;;;;;;2.70;2.60;;;;;;;7.25;61.70;93631.81;2615068;54;20157;-75
2022/01/05 21:09:03;;;;;;;2.33;1.73;;;;;;;8.71;59.33;93632.75;2615279;47;20190;-74
2022/01/05 21:11:34;;;;;;;2.90;2.70;;;;;;;8.61;58.71;93548.56;2615785;54;20153;-76
2022/01/05 21:14:03;;;;;;;1.73;1.73;;;;;;;10.00;56.47;93634.66;2615717;47;20189;-73
2022/01/05 21:16:40;;;;;;;2.57;2.47;;;;;;;8.87;54.14;93571.72;2615761;47;20164;-78
2022/01/05 21:19:13;;;;;;;5.33;3.03;;;;;;;10.38;56.59;93648.09;2615409;54;20153;-76
2022/01/05 21:21:47;;;;;;;2.17;2.07;;;;;;;10.93;53.55;93658.16;2613997;54;20168;-77
2022/01/05 21:27:07;;;;;;;2.73;2.47;;;;;;;10.64;54.63;93660.56;2615666;54;20256;-73
2022/01/05 21:29:38;;;;;;;1.77;1.77;;;;;;;11.15;54.72;93661.31;2615020;54;20149;-73
2022/01/05 21:32:08;;;;;;;2.43;2.30;;;;;;;11.34;54.46;93651.66;2615141;54;20170;-75
2022/01/05 21:34:39;;;;;;;2.93;2.80;;;;;;;10.20;50.68;93656.97;2615661;54;20156;-74
2022/01/05 21:37:10;;;;;;;1.60;1.57;;;;;;;8.27;54.26;93595.72;2615638;47;20661;-76
2022/01/05 21:39:42;;;;;;;2.00;1.43;;;;;;;8.13;56.13;93536.88;2615505;47;20145;-76
2022/01/05 21:42:19;;;;;;;3.60;2.30;;;;;;;7.61;56.66;93578.56;2615696;54;20165;-75
2022/01/05 21:44:48;;;;;;;2.03;1.93;;;;;;;7.62;59.08;93651.19;2615641;54;20181;-73
2022/01/05 21:47:18;;;;;;;2.10;1.43;;;;;;;8.82;58.11;93679.59;2615699;54;20153;-72
2022/01/05 21:49:47;;;;;;;2.97;2.77;;;;;;;9.96;57.97;93652.28;2615491;47;20149;-72
2022/01/05 21:52:15;;;;;;;2.30;2.20;;;;;;;8.91;54.54;93672.72;2615228;54;20160;-74
2022/01/05 21:54:45;;;;;;;5.00;2.07;;;;;;;9.29;54.35;93624.84;2615254;47;20278;-73
2022/01/05 21:57:16;;;;;;;3.23;3.13;;;;;;;8.78;54.80;93680.19;2616031;39;20625;-76
2022/01/05 21:59:45;;;;;;;6.37;1.57;;;;;;;6.81;58.70;93603.13;2615425;47;20692;-76
2022/01/05 22:02:14;;;;;;;1.93;1.20;;;;;;;8.09;59.56;93658.03;2615509;54;20136;-76
2022/01/05 22:04:43;;;;;;;2.30;2.20;;;;;;;8.52;57.35;93665.47;2615991;39;20442;-74
2022/01/05 22:07:13;;;;;;;1.93;1.83;;;;;;;7.60;56.73;93600.41;2615125;54;20301;-74
2022/01/05 22:09:44;;;;;;;1.97;1.80;;;;;;;8.80;57.90;93643.53;2615083;54;20168;-73
2022/01/05 22:12:20;;;;;;;1.63;1.13;;;;;;;9.08;56.09;93569.31;2615711;39;20893;-73
2022/01/05 22:14:49;;;;;;;1.53;1.47;;;;;;;9.59;57.70;93594.34;2616228;54;20184;-75
2022/01/05 22:17:20;;;;;;;1.27;1.27;;;;;;;9.71;54.35;93598.78;2615981;39;20545;-74
2022/01/05 22:19:49;;;;;;;2.93;1.90;;;;;;;10.47;53.88;93593.03;2615524;47;20152;-73
2022/01/05 22:22:20;;;;;;;2.00;1.87;;;;;;;10.44;53.71;93583.06;2615836;54;20172;-75
2022/01/05 22:24:51;;;;;;;2.23;2.13;;;;;;;10.76;53.56;93605.50;2614915;54;20152;-75
2022/01/05 22:27:25;;;;;;;2.70;2.50;;;;;;;10.04;53.63;93665.84;2615527;47;20156;-75
2022/01/05 22:29:54;;;;;;;3.23;2.83;;;;;;;10.81;53.80;93691.94;2615878;54;20149;-76
2022/01/05 22:32:32;;;;;;;1.50;1.40;;;;;;;10.73;50.13;93655.72;2615204;47;20248;-75
2022/01/05 22:35:01;;;;;;;5.53;3.37;;;;;;;9.37;53.24;93615.81;2615444;47;20289;-74
2022/01/05 22:37:31;;;;;;;2.30;2.17;;;;;;;7.52;55.28;93605.81;2615341;54;20164;-75
2022/01/05 22:40:01;;;;;;;5.33;2.10;;;;;;;6.50;61.61;93641.59;2615212;54;20305;-76
2022/01/05 22:42:45;;;;;;;1.93;1.93;;;;;;;6.72;58.63;93571.91;2615460;54;20677;-76
2022/01/05 22:45:19;;;;;;;3.97;2.13;;;;;;;6.07;60.93;93653.56;2616418;31;20679;-75
2022/01/05 22:47:51;;;;;;;1.00;1.00;;;;;;;6.13;61.31;93627.75;2615426;47;20145;-74
2022/01/05 22:50:21;;;;;;;1.07;0.97;;;;;;;5.43;63.24;93664.00;2615450;54;20157;-74
2022/01/05 22:52:52;;;;;;;1.67;1.67;;;;;;;5.28;65.30;93662.78;2615306;47;20192;-74
2022/01/05 22:55:23;;;;;;;0.97;0.97;;;;;;;5.94;63.50;93649.63;2615179;54;20152;-75
2022/01/05 22:57:57;;;;;;;0.90;0.90;;;;;;;4.81;62.91;93542.53;2615201;47;20257;-77
2022/01/05 23:00:29;;;;;;;1.20;1.10;;;;;;;5.56;63.82;93566.88;2615286;54;20179;-76
2022/01/05 23:03:03;;;;;;;1.50;1.27;;;;;;;5.72;63.24;93573.03;2615263;39;20526;-75
2022/01/05 23:05:35;;;;;;;2.27;2.07;;;;;;;7.05;60.13;93646.75;2615188;47;20148;-75
2022/01/05 23:08:07;;;;;;;6.40;1.83;;;;;;;6.54;61.54;93652.25;2615139;46;20149;-74
2022/01/05 23:10:36;;;;;;;1.63;1.57;;;;;;;5.14;62.16;93538.78;2615091;47;20153;-76
2022/01/05 23:13:11;;;;;;;1.00;1.00;;;;;;;6.98;62.96;93568.41;2615328;54;20176;-75
2022/01/05 23:15:39;;;;;;;2.53;2.27;;;;;;;6.90;58.43;93579.44;2615055;54;20248;-76
2022/01/05 23:18:15;;;;;;;1.90;1.43;;;;;;;7.01;59.57;93646.63;2615316;54;20161;-76
2022/01/05 23:20:45;;;;;;;2.10;2.00;;;;;;;8.83;59.59;93613.97;2615215;47;20156;-76
2022/01/05 23:23:16;;;;;;;6.60;2.10;;;;;;;8.49;54.28;93591.31;2615425;54;20164;-77
2022/01/05 23:25:50;;;;;;;5.07;1.70;;;;;;;9.21;57.94;93580.19;2615228;47;20660;-80
2022/01/05 23:28:24;;;;;;;2.77;2.40;;;;;;;10.17;56.64;93630.00;2614986;47;20232;-76
2022/01/05 23:30:54;;;;;;;2.07;1.97;;;;;;;8.25;53.46;93640.78;2615469;47;20657;-70
2022/01/05 23:33:26;;;;;;;5.43;1.83;;;;;;;6.06;60.98;93604.34;2615388;54;20149;-76
2022/01/05 23:35:59;;;;;;;1.40;1.30;;;;;;;7.79;61.42;93579.06;2615374;54;20189;-75
2022/01/05 23:38:44;;;;;;;1.97;1.87;;;;;;;6.55;58.45;93603.78;2615344;54;20208;-76
2022/01/05 23:41:18;;;;;;;0.90;0.90;;;;;;;6.43;65.92;93595.66;2615848;54;20156;-76
2022/01/05 23:43:50;;;;;;;1.90;1.07;;;;;;;8.14;61.55;93586.97;2615957;47;20272;-77
2022/01/05 23:46:19;;;;;;;1.37;1.27;;;;;;;7.81;54.91;93494.53;2615924;54;20236;-74
2022/01/05 23:48:51;;;;;;;2.20;2.10;;;;;;;7.27;56.70;93595.25;2615404;54;20181;-76
2022/01/05 23:51:26;;;;;;;2.47;2.33;;;;;;;6.08;59.91;93612.84;2615220;54;20141;-74
2022/01/05 23:53:57;;;;;;;1.37;1.20;;;;;;;7.08;58.17;93631.38;2615052;54;20183;-75
2022/01/05 23:56:29;;;;;;;1.70;1.67;;;;;;;5.35;61.73;93591.44;2615719;54;20652;-76
2022/01/05 23:59:00;;;;;;;1.13;1.13;;;;;;;7.14;62.11;93609.00;2614371;47;20256;-74
